Time;durP1;ratioP1;P1;durP2;ratioP2;P2;SDS_P1;SDS_P2;PMS_P1;PMS_P2;Temp;Humidity;BMP_temperature;BMP_pressure;BME280_temperature;BME280_humidity;BME280_pressure;Samples;Min_cycle;Max_cycle;Signal;HPM_P1;HPM_P2
2021/01/08 00:00:12;;;;;;;15.43;9.82;;;;;;;5.10;73.91;99229.38;6185491;23;20064;-84
2021/01/08 00:02:38;;;;;;;13.85;9.50;;;;;;;5.08;73.70;99229.44;6186593;23;20020;-84
2021/01/08 00:05:08;;;;;;;14.48;9.48;;;;;;;5.08;73.73;99228.56;6187277;23;20476;-84
2021/01/08 00:07:42;;;;;;;14.00;9.27;;;;;;;5.07;73.44;99226.91;6161354;23;20025;-85
2021/01/08 00:10:09;;;;;;;14.27;9.05;;;;;;;5.07;73.75;99232.97;6185521;23;20420;-84
2021/01/08 00:12:36;;;;;;;13.82;8.90;;;;;;;5.07;73.77;99240.78;6186798;23;20028;-84
2021/01/08 00:15:07;;;;;;;15.02;9.93;;;;;;;5.06;73.63;99239.09;6187139;23;20028;-84
2021/01/08 00:17:33;;;;;;;14.10;9.40;;;;;;;5.05;73.80;99226.94;6186542;23;20360;-84
2021/01/08 00:20:03;;;;;;;15.00;9.85;;;;;;;5.05;73.96;99239.16;6186756;23;20096;-84
2021/01/08 00:22:34;;;;;;;15.20;9.98;;;;;;;5.02;73.74;99232.31;6186495;23;20063;-83
2021/01/08 00:25:00;;;;;;;15.18;9.60;;;;;;;5.02;73.98;99224.50;6187070;23;20021;-84
2021/01/08 00:27:26;;;;;;;13.52;9.07;;;;;;;5.04;74.09;99229.63;6186720;23;20027;-84
2021/01/08 00:33:20;;;;;;;15.10;9.30;;;;;;;5.02;74.06;99241.91;6186482;23;20021;-84
2021/01/08 00:36:03;;;;;;;14.40;9.13;;;;;;;5.05;74.03;99247.81;6187264;23;20044;-83
2021/01/08 00:42:45;;;;;;;;;;;;;;;;;;;;;
2021/01/08 00:45:41;;;;;;;14.20;9.13;;;;;;;5.06;74.33;99243.47;6158956;23;20099;-84
2021/01/08 00:49:42;;;;;;;14.52;9.55;;;;;;;5.02;73.88;99245.38;6185613;23;20029;-84
2021/01/08 00:51:58;;;;;;;13.65;8.85;;;;;;;5.05;74.32;99245.22;6181751;23;20388;-84
2021/01/08 00:55:03;;;;;;;14.40;9.05;;;;;;;5.01;73.61;99242.81;6186108;23;20021;-84
2021/01/08 00:58:35;;;;;;;13.50;8.77;;;;;;;5.03;73.94;99244.44;6172353;23;20066;-84
2021/01/08 01:01:05;;;;;;;10.75;6.82;;;;;;;5.05;74.15;99249.59;6184706;23;20044;-84
2021/01/08 01:03:37;;;;;;;11.18;7.60;;;;;;;5.05;74.27;99239.16;6184754;23;20021;-84
2021/01/08 01:06:31;;;;;;;14.52;8.18;;;;;;;5.05;74.23;99241.78;6183718;23;20025;-84
2021/01/08 01:09:16;;;;;;;13.88;7.70;;;;;;;5.08;74.25;99244.22;6185767;23;20454;-84
2021/01/08 01:12:29;;;;;;;12.73;8.45;;;;;;;5.06;73.82;99239.09;6185353;23;20044;-84
2021/01/08 01:15:31;;;;;;;13.82;8.10;;;;;;;5.09;73.93;99243.34;6037830;23;20375;-84
2021/01/08 01:19:08;;;;;;;;;;;;;;;;;;;;;
2021/01/08 01:21:57;;;;;;;11.77;7.47;;;;;;;5.14;74.30;99243.13;6038398;23;20057;-84
2021/01/08 01:25:24;;;;;;;10.90;7.50;;;;;;;5.09;73.46;99256.38;6095142;23;20023;-84
2021/01/08 01:32:10;;;;;;;9.95;6.50;;;;;;;5.08;73.85;99250.31;5909782;24;20028;-83
2021/01/08 01:35:18;;;;;;;13.10;6.68;;;;;;;5.04;73.61;99253.97;5953605;24;20040;-84
2021/01/08 01:37:55;;;;;;;10.93;6.70;;;;;;;5.04;73.85;99261.78;6066582;23;20073;-83
2021/01/08 01:41:03;;;;;;;12.00;7.93;;;;;;;5.03;73.31;99267.06;6066713;23;20382;-84
2021/01/08 01:47:31;;;;;;;11.90;7.10;;;;;;;5.04;73.63;99268.75;6059156;23;20029;-84
2021/01/08 01:50:56;;;;;;;13.00;8.57;;;;;;;5.02;73.11;99270.59;6065929;23;20415;-84
2021/01/08 01:53:23;;;;;;;12.38;7.80;;;;;;;5.04;73.76;99272.22;6141367;23;20028;-85
2021/01/08 01:55:50;;;;;;;13.05;8.48;;;;;;;5.02;73.87;99270.59;6186324;23;20028;-86
2021/01/08 01:58:18;;;;;;;13.70;8.57;;;;;;;5.00;73.88;99267.19;6186230;23;20028;-86
2021/01/08 02:00:44;;;;;;;15.27;9.40;;;;;;;4.98;74.08;99267.28;6160003;23;20027;-86
2021/01/08 02:03:16;;;;;;;13.10;7.97;;;;;;;4.97;74.20;99269.94;6185922;23;20083;-86
2021/01/08 02:05:46;;;;;;;15.68;9.45;;;;;;;4.95;73.82;99270.00;6159961;23;20021;-86
2021/01/08 02:08:18;;;;;;;14.15;9.00;;;;;;;4.95;73.80;99267.41;6186877;23;20387;-86
2021/01/08 02:10:59;;;;;;;12.85;8.15;;;;;;;4.94;73.70;99270.91;6159536;23;20391;-86
2021/01/08 02:13:35;;;;;;;12.80;8.27;;;;;;;4.96;74.13;99266.47;6185682;23;20071;-86
2021/01/08 02:16:02;;;;;;;12.48;8.30;;;;;;;4.96;74.19;99266.47;6186086;23;20032;-86
2021/01/08 02:18:29;;;;;;;13.90;8.20;;;;;;;4.95;74.15;99265.66;6159947;23;20101;-86
2021/01/08 02:21:00;;;;;;;13.85;8.90;;;;;;;4.94;73.96;99265.72;6160138;23;20021;-86
2021/01/08 02:23:45;;;;;;;14.80;8.45;;;;;;;4.92;73.66;99285.78;6185316;23;20470;-86
2021/01/08 02:26:12;;;;;;;13.20;8.73;;;;;;;4.94;74.05;99273.53;6160013;23;20025;-86
2021/01/08 02:28:42;;;;;;;12.50;8.05;;;;;;;4.93;74.02;99275.28;6186087;23;20104;-86
2021/01/08 02:31:08;;;;;;;11.23;7.57;;;;;;;4.93;74.25;99277.03;6185585;23;20403;-86
2021/01/08 02:33:34;;;;;;;10.63;7.53;;;;;;;4.92;74.41;99277.94;6185747;23;20021;-86
2021/01/08 02:36:02;;;;;;;11.93;7.80;;;;;;;4.90;74.45;99275.41;6186275;23;20032;-86
2021/01/08 02:38:29;;;;;;;13.25;7.75;;;;;;;4.91;74.32;99284.94;6186004;23;20025;-86
2021/01/08 02:40:56;;;;;;;12.60;7.10;;;;;;;4.90;73.91;99277.19;6185975;23;20025;-86
2021/01/08 02:43:24;;;;;;;10.38;6.80;;;;;;;4.89;74.03;99285.88;6185583;23;20017;-86
2021/01/08 02:45:52;;;;;;;10.82;7.03;;;;;;;4.87;74.24;99280.75;6159953;23;20087;-86
2021/01/08 02:48:19;;;;;;;10.20;6.68;;;;;;;4.86;74.17;99279.03;6159414;23;20056;-85
2021/01/08 02:50:46;;;;;;;10.90;7.15;;;;;;;4.86;74.46;99280.81;6159801;23;20056;-85
2021/01/08 02:53:14;;;;;;;9.65;6.40;;;;;;;4.85;74.49;99281.75;6185477;23;20021;-85
2021/01/08 02:55:56;;;;;;;11.63;6.35;;;;;;;4.82;74.03;99280.94;6159744;23;20028;-86
2021/01/08 02:58:24;;;;;;;9.80;6.95;;;;;;;4.87;74.36;99282.50;6160253;23;20025;-86
2021/01/08 03:00:52;;;;;;;9.30;6.35;;;;;;;4.87;74.47;99287.72;6185779;23;20101;-86
2021/01/08 03:03:19;;;;;;;8.32;5.88;;;;;;;4.87;74.28;99283.38;6185358;23;20021;-85
2021/01/08 03:05:46;;;;;;;9.35;6.03;;;;;;;4.87;74.34;99285.13;6185816;23;20032;-86
2021/01/08 03:08:12;;;;;;;8.68;6.13;;;;;;;4.88;74.36;99287.66;6185822;23;20348;-85
2021/01/08 03:10:38;;;;;;;10.40;6.30;;;;;;;4.89;74.34;99289.34;6159277;23;20021;-86
2021/01/08 03:13:07;;;;;;;8.90;5.93;;;;;;;4.89;74.01;99284.13;6185308;23;20400;-86
2021/01/08 03:15:34;;;;;;;7.90;5.53;;;;;;;4.90;74.27;99290.22;6185686;23;20021;-86
2021/01/08 03:18:00;;;;;;;8.45;5.82;;;;;;;4.89;74.32;99294.56;6159818;23;20021;-86
2021/01/08 03:20:26;;;;;;;9.77;6.50;;;;;;;4.90;74.31;99290.22;6159622;23;20024;-86
2021/01/08 03:22:52;;;;;;;9.57;6.40;;;;;;;4.91;74.38;99289.28;6185677;23;20044;-86
2021/01/08 03:25:19;;;;;;;9.13;6.10;;;;;;;4.92;74.50;99290.97;6186038;23;20021;-86
2021/01/08 03:27:45;;;;;;;10.40;6.20;;;;;;;4.93;74.11;99295.28;6160915;23;20025;-86
2021/01/08 03:30:13;;;;;;;9.18;6.32;;;;;;;4.92;73.98;99302.28;6187466;23;20025;-86
2021/01/08 03:32:40;;;;;;;9.60;5.93;;;;;;;4.93;74.32;99298.75;6161042;23;20028;-86
2021/01/08 03:35:06;;;;;;;9.27;5.93;;;;;;;4.93;74.06;99301.38;6187454;23;20025;-86
2021/01/08 03:37:33;;;;;;;7.90;6.07;;;;;;;4.96;74.28;99297.78;6187125;23;20021;-86
2021/01/08 03:39:59;;;;;;;8.82;5.97;;;;;;;4.95;74.10;99294.34;6187400;23;20029;-86
2021/01/08 03:42:26;;;;;;;9.80;6.00;;;;;;;4.94;74.16;99300.44;6187056;23;20021;-86
2021/01/08 03:44:52;;;;;;;9.82;6.35;;;;;;;4.97;74.11;99303.84;6187454;23;20028;-86
2021/01/08 03:47:18;;;;;;;8.60;6.15;;;;;;;4.95;74.17;99302.16;6187291;23;20043;-86
2021/01/08 03:49:46;;;;;;;8.60;5.95;;;;;;;4.96;74.15;99300.38;6187237;23;20096;-86
2021/01/08 03:52:12;;;;;;;8.63;5.63;;;;;;;4.97;74.28;99303.84;6186877;23;20061;-86
2021/01/08 03:54:38;;;;;;;8.90;6.03;;;;;;;4.97;74.16;99309.91;6186823;23;20340;-86
2021/01/08 03:57:04;;;;;;;9.05;6.05;;;;;;;4.98;74.09;99303.78;6161232;23;20025;-86
2021/01/08 03:59:30;;;;;;;10.98;6.65;;;;;;;4.99;74.01;99308.09;6186825;23;20460;-86
2021/01/08 04:01:56;;;;;;;9.52;6.45;;;;;;;4.99;74.15;99305.47;6186902;23;20021;-86
2021/01/08 04:04:23;;;;;;;8.20;6.25;;;;;;;4.99;73.89;99310.69;6187155;23;20016;-86
2021/01/08 04:06:52;;;;;;;8.60;6.10;;;;;;;5.00;73.69;99319.34;6160770;23;20467;-86
2021/01/08 04:09:19;;;;;;;8.63;6.18;;;;;;;4.99;73.85;99313.31;6187281;23;20021;-86
2021/01/08 04:11:46;;;;;;;7.18;5.47;;;;;;;4.99;73.43;99313.31;6187142;23;20025;-86
2021/01/08 04:14:13;;;;;;;8.13;5.50;;;;;;;4.97;73.65;99312.50;6186415;23;20487;-86
2021/01/08 04:16:41;;;;;;;9.23;6.35;;;;;;;4.98;73.79;99315.97;6187002;23;20025;-86
2021/01/08 04:19:08;;;;;;;8.32;6.07;;;;;;;4.98;73.45;99315.97;6186998;23;20021;-86
2021/01/08 04:21:35;;;;;;;8.10;5.78;;;;;;;4.95;73.76;99311.72;6187013;23;20025;-86
2021/01/08 04:24:01;;;;;;;7.05;5.43;;;;;;;4.94;73.51;99308.25;6160417;23;20064;-86
2021/01/08 04:26:28;;;;;;;7.53;5.55;;;;;;;4.94;73.80;99302.22;6187012;23;20348;-86
2021/01/08 04:28:54;;;;;;;7.97;5.68;;;;;;;4.93;73.57;99297.88;6160775;23;20025;-86
2021/01/08 04:31:20;;;;;;;7.65;5.90;;;;;;;4.94;73.69;99308.25;6186560;23;20460;-86
2021/01/08 04:33:46;;;;;;;8.57;6.65;;;;;;;4.93;73.92;99311.78;6159957;23;20023;-86
2021/01/08 04:36:12;;;;;;;8.82;6.40;;;;;;;4.93;73.45;99319.63;6186910;23;20024;-86
2021/01/08 04:38:40;;;;;;;7.60;6.15;;;;;;;4.93;73.59;99319.63;6186892;23;20028;-86
2021/01/08 04:41:08;;;;;;;9.43;6.43;;;;;;;4.94;73.40;99317.88;6186890;23;20027;-86
2021/01/08 04:43:36;;;;;;;8.55;5.50;;;;;;;4.93;73.55;99318.75;6186567;23;20351;-86
2021/01/08 04:46:14;;;;;;;9.32;6.70;;;;;;;4.89;73.07;99325.00;6186747;23;20079;-86
2021/01/08 04:48:42;;;;;;;9.05;6.38;;;;;;;4.92;73.74;99324.88;6186798;23;20028;-86
2021/01/08 04:51:10;;;;;;;10.25;6.53;;;;;;;4.91;73.60;99326.66;6186396;23;20464;-86
2021/01/08 04:53:37;;;;;;;8.10;5.95;;;;;;;4.92;73.62;99327.50;6159760;23;20021;-86
2021/01/08 04:56:06;;;;;;;7.63;5.95;;;;;;;4.91;73.53;99320.59;6186735;23;20021;-86
2021/01/08 04:58:33;;;;;;;9.07;6.85;;;;;;;4.92;73.56;99320.53;6186318;23;20025;-86
2021/01/08 05:01:01;;;;;;;8.63;5.75;;;;;;;4.92;73.50;99327.50;6160571;23;20021;-86
2021/01/08 05:03:33;;;;;;;6.78;5.43;;;;;;;4.90;73.17;99324.94;6160344;23;20052;-86
2021/01/08 05:05:59;;;;;;;8.13;5.65;;;;;;;4.91;73.26;99328.41;6186683;23;20043;-86
2021/01/08 05:08:26;;;;;;;8.80;5.95;;;;;;;4.89;73.63;99330.22;6160087;23;20456;-86
2021/01/08 05:10:54;;;;;;;8.57;6.25;;;;;;;4.88;73.57;99328.53;6160699;23;20025;-86
2021/01/08 05:13:21;;;;;;;8.45;5.68;;;;;;;4.86;73.47;99328.59;6185829;23;20104;-86
2021/01/08 05:15:51;;;;;;;6.68;5.00;;;;;;;4.83;73.27;99337.38;6186385;23;20048;-86
2021/01/08 05:18:20;;;;;;;7.57;6.03;;;;;;;4.83;73.41;99340.00;6160876;23;20032;-86
2021/01/08 05:20:53;;;;;;;7.50;5.53;;;;;;;4.80;72.98;99332.31;6136029;23;20021;-86
2021/01/08 05:23:19;;;;;;;7.38;5.30;;;;;;;4.83;73.40;99347.81;6186189;23;20017;-86
2021/01/08 05:25:49;;;;;;;7.90;5.90;;;;;;;4.81;73.23;99343.59;6186444;23;20360;-86
2021/01/08 05:28:18;;;;;;;9.52;6.32;;;;;;;4.81;73.24;99340.97;6184988;23;20021;-86
2021/01/08 05:30:47;;;;;;;8.20;6.30;;;;;;;4.80;73.17;99342.75;6185896;23;20025;-86
2021/01/08 05:33:15;;;;;;;8.65;6.30;;;;;;;4.80;73.46;99345.34;6186029;23;20028;-85
2021/01/08 05:35:42;;;;;;;9.00;6.57;;;;;;;4.81;73.50;99351.41;6159890;23;20025;-85
2021/01/08 05:38:09;;;;;;;8.40;6.43;;;;;;;4.80;73.31;99352.31;6160204;23;20079;-85
2021/01/08 05:40:41;;;;;;;9.23;6.60;;;;;;;4.77;73.00;99361.13;6186273;23;20332;-86
2021/01/08 05:43:09;;;;;;;8.70;6.20;;;;;;;4.76;73.34;99355.97;6185564;23;20028;-86
2021/01/08 05:45:35;;;;;;;8.00;5.97;;;;;;;4.74;73.63;99360.41;6185891;23;20020;-86
2021/01/08 05:48:04;;;;;;;7.97;6.13;;;;;;;4.72;73.46;99363.06;6186300;23;20028;-86
2021/01/08 05:50:32;;;;;;;8.35;6.05;;;;;;;4.71;73.46;99363.94;6186173;23;20071;-85
2021/01/08 05:53:07;;;;;;;7.93;5.82;;;;;;;4.68;73.11;99361.47;6185572;23;20017;-86
2021/01/08 05:55:34;;;;;;;6.22;4.82;;;;;;;4.71;73.79;99366.56;6160090;23;20021;-86
2021/01/08 05:58:16;;;;;;;8.07;5.97;;;;;;;4.68;73.38;99366.69;6159592;23;20325;-86
2021/01/08 06:00:43;;;;;;;6.17;4.53;;;;;;;4.71;73.58;99361.34;6186279;23;20021;-86
2021/01/08 06:03:11;;;;;;;6.97;5.05;;;;;;;4.71;73.78;99365.72;6185384;23;20241;-86
2021/01/08 06:05:39;;;;;;;7.85;5.95;;;;;;;4.70;73.65;99359.66;6186136;23;20029;-85
2021/01/08 06:08:06;;;;;;;9.27;6.45;;;;;;;4.69;73.41;99364.03;6186255;23;20025;-86
2021/01/08 06:10:35;;;;;;;7.65;5.90;;;;;;;4.69;73.48;99369.25;6186134;23;20029;-85
2021/01/08 06:13:02;;;;;;;7.60;5.38;;;;;;;4.69;73.31;99368.38;6185802;23;20025;-85
2021/01/08 06:15:29;;;;;;;7.45;5.70;;;;;;;4.68;73.79;99370.13;6185833;23;20459;-85
2021/01/08 06:17:56;;;;;;;7.55;5.63;;;;;;;4.69;73.77;99374.47;6185622;23;20025;-85
2021/01/08 06:20:22;;;;;;;7.68;5.72;;;;;;;4.70;73.76;99372.69;6159818;23;20021;-86
2021/01/08 06:22:49;;;;;;;7.18;5.70;;;;;;;4.72;73.61;99372.63;6185362;23;20024;-85
2021/01/08 06:25:17;;;;;;;6.90;5.38;;;;;;;4.70;73.59;99377.91;6159646;23;20490;-85
2021/01/08 06:27:45;;;;;;;6.78;4.82;;;;;;;4.71;73.31;99378.75;6186080;23;20023;-85
2021/01/08 06:30:20;;;;;;;6.50;5.03;;;;;;;4.69;73.30;99384.88;6159833;23;20032;-85
2021/01/08 06:32:48;;;;;;;6.40;5.20;;;;;;;4.69;73.59;99390.09;6185554;23;20072;-85
2021/01/08 06:35:18;;;;;;;6.03;5.03;;;;;;;4.69;73.51;99390.09;6185988;23;20091;-88
2021/01/08 06:37:44;;;;;;;8.00;5.70;;;;;;;4.70;73.42;99390.94;6160264;23;20032;-86
2021/01/08 06:40:13;;;;;;;10.30;5.57;;;;;;;4.68;73.30;99385.78;6185795;23;20456;-86
2021/01/08 06:42:45;;;;;;;11.05;5.40;;;;;;;4.68;73.14;99392.78;6185733;23;20025;-85
2021/01/08 06:45:14;;;;;;;7.63;5.72;;;;;;;4.69;73.44;99391.84;6185917;23;20025;-86
2021/01/08 06:47:46;;;;;;;7.25;5.47;;;;;;;4.68;73.45;99397.97;6159513;23;20032;-86
2021/01/08 06:50:18;;;;;;;7.20;5.18;;;;;;;4.68;73.35;99397.97;6185993;23;20059;-86
2021/01/08 06:52:47;;;;;;;6.75;5.25;;;;;;;4.71;73.50;99407.44;6159275;23;20021;-85
2021/01/08 06:55:18;;;;;;;5.63;4.95;;;;;;;4.69;73.42;99412.72;6185938;23;20021;-84
2021/01/08 06:57:50;;;;;;;6.30;4.47;;;;;;;4.67;73.38;99406.69;6186595;23;20083;-85
2021/01/08 07:00:28;;;;;;;7.80;4.88;;;;;;;4.65;73.38;99409.38;6187821;23;20021;-85
2021/01/08 07:03:05;;;;;;;5.97;4.97;;;;;;;4.65;73.41;99413.72;6161394;23;20029;-85
2021/01/08 07:05:32;;;;;;;5.82;4.65;;;;;;;4.68;73.91;99417.06;6187869;23;20357;-85
2021/01/08 07:07:58;;;;;;;6.10;4.55;;;;;;;4.69;73.78;99430.97;6187410;23;20483;-85
2021/01/08 07:10:25;;;;;;;6.68;5.03;;;;;;;4.68;73.26;99424.88;6187427;23;20029;-85
2021/01/08 07:12:54;;;;;;;6.03;4.95;;;;;;;4.65;73.50;99432.84;6161258;23;20117;-85
2021/01/08 07:15:21;;;;;;;6.60;4.75;;;;;;;4.65;73.51;99432.84;6187718;23;20079;-85
2021/01/08 07:17:57;;;;;;;6.55;5.00;;;;;;;4.63;73.35;99436.41;6187329;23;20029;-85
2021/01/08 07:20:23;;;;;;;6.07;4.70;;;;;;;4.65;73.89;99434.59;6187320;23;20464;-85
2021/01/08 07:22:56;;;;;;;7.07;5.45;;;;;;;4.63;73.51;99445.06;6160915;23;20487;-85
2021/01/08 07:25:24;;;;;;;7.97;5.15;;;;;;;4.65;73.83;99450.22;6161542;23;20025;-85
2021/01/08 07:27:54;;;;;;;6.10;4.93;;;;;;;4.65;73.91;99445.03;6187519;23;20087;-85
2021/01/08 07:30:22;;;;;;;7.60;5.18;;;;;;;4.66;73.87;99452.78;6161321;23;20083;-85
2021/01/08 07:32:52;;;;;;;7.68;5.65;;;;;;;4.67;73.94;99461.44;6186802;23;20388;-85
2021/01/08 07:35:27;;;;;;;7.78;5.72;;;;;;;4.66;73.08;99459.75;6187310;23;20080;-85
2021/01/08 07:38:10;;;;;;;7.03;5.07;;;;;;;4.64;73.32;99465.00;6161429;23;20029;-84
2021/01/08 07:40:40;;;;;;;6.65;5.20;;;;;;;4.68;73.93;99470.97;6160958;23;20017;-85
2021/01/08 07:43:11;;;;;;;8.80;6.18;;;;;;;4.66;73.74;99475.38;6160753;23;20032;-85
2021/01/08 07:46:04;;;;;;;8.10;5.60;;;;;;;4.64;73.46;99475.44;6187140;23;20547;-85
2021/01/08 07:48:40;;;;;;;7.35;4.97;;;;;;;4.66;73.92;99478.84;6182774;23;20411;-85
2021/01/08 07:51:08;;;;;;;8.68;5.35;;;;;;;4.67;74.12;99485.75;6187500;23;20027;-91
2021/01/08 07:53:37;;;;;;;7.70;5.88;;;;;;;4.69;73.89;99493.53;6184855;23;20028;-81
2021/01/08 07:56:04;;;;;;;7.72;5.82;;;;;;;4.70;74.10;99495.22;6167117;23;20017;-81
2021/01/08 07:58:31;;;;;;;7.20;5.50;;;;;;;4.71;74.23;99490.88;6193742;23;20025;-81
2021/01/08 08:00:59;;;;;;;9.00;5.60;;;;;;;4.71;74.17;99493.47;6166224;23;20474;-81
2021/01/08 08:03:25;;;;;;;8.20;5.80;;;;;;;4.72;74.18;99492.56;6193504;23;20329;-81
2021/01/08 08:05:51;;;;;;;7.78;5.82;;;;;;;4.73;74.20;99500.34;6167394;23;20025;-81
2021/01/08 08:08:18;;;;;;;6.55;4.97;;;;;;;4.74;74.18;99501.19;6190512;23;20100;-81
2021/01/08 08:10:44;;;;;;;7.93;5.50;;;;;;;4.74;74.12;99502.03;6192585;23;20534;-82
2021/01/08 08:13:12;;;;;;;7.38;5.10;;;;;;;4.74;74.03;99504.63;6166790;23;20025;-82
2021/01/08 08:15:46;;;;;;;7.80;5.15;;;;;;;4.74;73.47;99509.84;6193923;23;20024;-81
2021/01/08 08:18:13;;;;;;;7.32;4.95;;;;;;;4.77;73.95;99512.34;6193031;23;20482;-81
2021/01/08 08:20:40;;;;;;;6.65;5.18;;;;;;;4.76;74.03;99513.28;6192346;23;20021;-82
2021/01/08 08:23:14;;;;;;;6.85;5.25;;;;;;;4.75;73.57;99521.16;6191194;23;20021;-81
2021/01/08 08:25:40;;;;;;;7.93;5.75;;;;;;;4.78;74.23;99527.09;6191905;23;20385;-82
2021/01/08 08:28:07;;;;;;;8.20;5.72;;;;;;;4.79;74.02;99531.38;6192087;23;20021;-83
2021/01/08 08:30:33;;;;;;;9.35;6.53;;;;;;;4.80;74.23;99535.72;6193534;23;20025;-82
2021/01/08 08:33:00;;;;;;;10.00;6.82;;;;;;;4.81;74.23;99540.03;6195437;23;20032;-82
2021/01/08 08:35:27;;;;;;;11.27;6.80;;;;;;;4.83;74.10;99537.38;6193131;23;20096;-81
2021/01/08 08:37:56;;;;;;;12.95;8.20;;;;;;;4.85;74.21;99556.41;6167407;23;20021;-81
2021/01/08 08:40:24;;;;;;;13.15;7.38;;;;;;;4.85;74.08;99559.00;6190471;23;20397;-81
2021/01/08 08:42:58;;;;;;;9.63;7.15;;;;;;;4.85;73.80;99556.41;6165448;23;20029;-81
2021/01/08 08:45:31;;;;;;;14.15;8.25;;;;;;;4.86;74.02;99558.09;6192201;23;20032;-81
2021/01/08 08:47:59;;;;;;;12.47;8.40;;;;;;;4.89;74.22;99567.56;6195624;23;20021;-82
2021/01/08 08:50:25;;;;;;;15.00;7.93;;;;;;;4.90;74.20;99572.72;6166139;23;20245;-82
2021/01/08 08:52:52;;;;;;;13.30;8.98;;;;;;;4.91;74.16;99569.22;6193634;23;20483;-82
2021/01/08 08:55:32;;;;;;;14.88;8.43;;;;;;;4.90;73.68;99575.34;6194462;23;20083;-81
2021/01/08 08:58:12;;;;;;;15.20;9.07;;;;;;;4.94;73.61;99581.31;6167527;23;20029;-81
2021/01/08 09:00:43;;;;;;;16.25;9.35;;;;;;;4.98;74.17;99582.03;6167601;23;20469;-82
2021/01/08 09:03:20;;;;;;;13.98;9.82;;;;;;;4.98;73.80;99587.25;6194899;23;20456;-81
2021/01/08 09:05:50;;;;;;;14.63;8.93;;;;;;;5.03;73.99;99583.56;6190733;23;20021;-82
2021/01/08 09:08:21;;;;;;;12.48;8.85;;;;;;;5.05;74.29;99586.97;6165990;23;20025;-81
2021/01/08 09:10:52;;;;;;;11.40;7.57;;;;;;;5.06;74.41;99587.81;6170941;23;20056;-82
2021/01/08 09:13:36;;;;;;;10.00;7.20;;;;;;;5.07;73.87;99584.31;6194810;23;20017;-81
2021/01/08 09:16:19;;;;;;;9.48;6.80;;;;;;;5.06;73.15;99591.31;6171405;23;20025;-81
2021/01/08 09:18:48;;;;;;;8.70;5.93;;;;;;;5.09;73.61;99598.16;6171750;23;20021;-81
2021/01/08 09:21:22;;;;;;;8.75;6.25;;;;;;;5.09;73.54;99590.34;6168241;23;20456;-81
2021/01/08 09:23:51;;;;;;;6.30;4.90;;;;;;;5.08;73.35;99599.91;6195888;23;20021;-82
2021/01/08 09:26:19;;;;;;;8.73;4.90;;;;;;;5.07;73.76;99598.22;6168533;23;20025;-81
2021/01/08 09:28:51;;;;;;;5.90;4.78;;;;;;;5.04;73.54;99602.66;6165492;23;20028;-82
2021/01/08 09:31:17;;;;;;;6.10;4.22;;;;;;;5.05;73.97;99600.00;6172849;23;20032;-81
2021/01/08 09:33:59;;;;;;;6.43;4.70;;;;;;;5.01;73.38;99601.03;6192161;23;20024;-81
2021/01/08 09:36:35;;;;;;;5.70;4.13;;;;;;;5.02;73.12;99612.31;6193528;23;20463;-81
2021/01/08 09:39:05;;;;;;;5.43;3.85;;;;;;;5.03;73.58;99609.66;6192521;23;20032;-82
2021/01/08 09:41:35;;;;;;;6.20;4.32;;;;;;;5.02;73.37;99615.81;6189616;23;20087;-81
2021/01/08 09:44:04;;;;;;;6.88;3.80;;;;;;;5.02;73.67;99615.81;6189136;23;20400;-81
2021/01/08 09:46:31;;;;;;;6.30;4.68;;;;;;;5.01;73.83;99619.28;6190157;23;20021;-81
2021/01/08 09:49:07;;;;;;;6.07;4.35;;;;;;;4.98;73.51;99619.44;6195156;23;20025;-82
2021/01/08 09:51:34;;;;;;;5.93;4.10;;;;;;;5.02;74.13;99620.16;6193484;23;20021;-81
2021/01/08 09:54:00;;;;;;;5.72;4.03;;;;;;;5.02;74.24;99615.81;6190440;23;20017;-82
2021/01/08 09:56:26;;;;;;;5.55;4.00;;;;;;;5.02;73.85;99615.81;6191084;23;20025;-81
2021/01/08 09:59:13;;;;;;;4.75;3.55;;;;;;;4.99;72.89;99625.47;6191909;23;20032;-81
2021/01/08 10:01:59;;;;;;;6.88;4.50;;;;;;;5.02;73.40;99623.63;6191371;23;20017;-81
2021/01/08 10:04:29;;;;;;;5.55;3.97;;;;;;;5.02;73.39;99622.75;6166680;23;20025;-81
2021/01/08 10:07:06;;;;;;;7.38;4.13;;;;;;;5.03;73.85;99630.53;6165615;23;20029;-82
2021/01/08 10:09:49;;;;;;;5.57;4.28;;;;;;;5.01;73.44;99634.94;6167424;23;20021;-81
2021/01/08 10:12:19;;;;;;;6.03;4.28;;;;;;;5.04;73.55;99629.63;6190703;23;20021;-84
2021/01/08 10:14:46;;;;;;;5.10;3.97;;;;;;;5.06;73.92;99633.03;6166620;23;20021;-82
2021/01/08 10:17:17;;;;;;;5.70;4.55;;;;;;;5.05;73.73;99630.50;6165831;23;20107;-82
2021/01/08 10:19:47;;;;;;;5.32;3.63;;;;;;;5.07;74.04;99637.34;6193923;23;20024;-82
2021/01/08 10:22:20;;;;;;;5.63;4.22;;;;;;;5.09;73.83;99642.50;6167954;23;20021;-82
2021/01/08 10:24:46;;;;;;;6.22;4.35;;;;;;;5.12;74.33;99639.78;6191138;23;20025;-81
2021/01/08 10:27:13;;;;;;;7.10;5.03;;;;;;;5.15;74.12;99636.19;6193732;23;20041;-82
2021/01/08 10:29:40;;;;;;;6.82;4.32;;;;;;;5.14;74.37;99640.59;6168084;23;20024;-82
2021/01/08 10:32:11;;;;;;;7.38;4.82;;;;;;;5.16;74.14;99640.53;6195039;23;20025;-81
2021/01/08 10:34:39;;;;;;;7.45;5.18;;;;;;;5.20;74.62;99640.34;6193757;23;20091;-82
2021/01/08 10:37:13;;;;;;;6.82;4.85;;;;;;;5.26;74.86;99644.50;6193986;23;20024;-82
2021/01/08 10:39:39;;;;;;;6.90;4.93;;;;;;;5.31;74.70;99644.34;6166496;23;20025;-82
2021/01/08 10:42:05;;;;;;;7.35;4.75;;;;;;;5.36;74.91;99647.63;6167294;23;20025;-82
2021/01/08 10:44:41;;;;;;;6.43;4.68;;;;;;;5.41;74.73;99645.69;6169205;23;20029;-82
2021/01/08 10:47:08;;;;;;;7.28;5.25;;;;;;;5.45;74.55;99644.66;6169138;23;20025;-82
2021/01/08 10:49:43;;;;;;;6.70;4.45;;;;;;;5.51;74.71;99654.03;6170690;23;20048;-81
2021/01/08 10:52:09;;;;;;;7.10;4.53;;;;;;;5.55;74.56;99647.78;6168428;23;20088;-82
2021/01/08 10:54:35;;;;;;;7.85;5.10;;;;;;;5.60;74.49;99644.97;6169852;23;20024;-82
2021/01/08 10:57:01;;;;;;;7.10;4.70;;;;;;;5.63;74.46;99655.31;6169685;23;20025;-82
2021/01/08 10:59:27;;;;;;;7.28;4.88;;;;;;;5.67;74.24;99651.69;6196210;23;20075;-82
2021/01/08 11:01:53;;;;;;;6.60;4.63;;;;;;;5.69;73.98;99654.25;6170847;23;20025;-82
2021/01/08 11:04:34;;;;;;;8.43;6.63;;;;;;;5.73;74.20;99661.06;6197192;23;20032;-82
2021/01/08 11:07:00;;;;;;;11.52;7.90;;;;;;;5.76;74.05;99647.88;6170974;23;20021;-82
2021/01/08 11:09:26;;;;;;;8.55;5.88;;;;;;;5.77;73.53;99649.56;6170554;23;20021;-82
2021/01/08 11:11:52;;;;;;;8.23;6.25;;;;;;;5.80;73.69;99649.44;6185831;23;20024;-82
2021/01/08 11:14:19;;;;;;;8.38;6.55;;;;;;;5.81;73.70;99651.16;6185496;23;20017;-82
2021/01/08 11:16:45;;;;;;;8.13;6.10;;;;;;;5.82;73.78;99652.84;6185776;23;20029;-82
2021/01/08 11:19:11;;;;;;;8.98;6.38;;;;;;;5.85;74.05;99650.13;6159259;23;20460;-82
2021/01/08 11:21:37;;;;;;;8.52;5.97;;;;;;;5.87;74.13;99645.69;6185772;23;20028;-82
2021/01/08 11:24:04;;;;;;;7.75;5.85;;;;;;;5.93;74.29;99648.97;6185502;23;20021;-82
2021/01/08 11:26:30;;;;;;;8.25;5.78;;;;;;;5.98;74.35;99644.44;6186060;23;20022;-82
2021/01/08 11:28:57;;;;;;;8.45;6.05;;;;;;;6.02;74.27;99648.59;6185699;23;20027;-82
2021/01/08 11:31:36;;;;;;;9.15;6.00;;;;;;;6.04;73.11;99645.94;6185357;23;20025;-82
2021/01/08 11:34:04;;;;;;;7.75;5.35;;;;;;;6.11;73.87;99648.28;6184978;23;20348;-82
2021/01/08 11:36:30;;;;;;;7.35;5.05;;;;;;;6.16;73.83;99655.09;6185637;23;20021;-82
2021/01/08 11:38:58;;;;;;;7.93;4.93;;;;;;;6.19;73.78;99649.72;6185437;23;20024;-82
2021/01/08 11:41:24;;;;;;;6.75;4.72;;;;;;;6.22;73.39;99654.81;6159598;23;20028;-82
2021/01/08 11:43:50;;;;;;;7.22;4.68;;;;;;;6.24;73.15;99650.38;6185738;23;20017;-82
2021/01/08 11:46:20;;;;;;;7.28;5.05;;;;;;;6.23;72.33;99653.91;6187476;23;20021;-82
2021/01/08 11:48:50;;;;;;;6.97;4.57;;;;;;;6.25;72.63;99665.16;6161247;23;20478;-82
2021/01/08 11:51:16;;;;;;;7.05;4.78;;;;;;;6.24;72.73;99660.81;6187303;23;20076;-82
2021/01/08 11:53:44;;;;;;;6.88;4.75;;;;;;;6.20;72.27;99662.72;6160663;23;20021;-82
2021/01/08 11:56:12;;;;;;;7.05;4.70;;;;;;;6.18;72.10;99655.84;6161481;23;20059;-82
2021/01/08 11:58:38;;;;;;;7.00;4.97;;;;;;;6.15;72.53;99664.69;6187055;23;20371;-82
2021/01/08 12:01:05;;;;;;;9.07;4.88;;;;;;;6.13;72.83;99662.13;6187321;23;20060;-82
2021/01/08 12:03:34;;;;;;;7.28;4.90;;;;;;;6.12;73.02;99660.41;6187625;23;20017;-81
2021/01/08 12:06:00;;;;;;;6.55;5.00;;;;;;;6.15;73.41;99658.59;6187322;23;20025;-82
2021/01/08 12:08:26;;;;;;;7.80;5.53;;;;;;;6.15;73.11;99655.97;6187448;23;20028;-82
2021/01/08 12:10:54;;;;;;;7.72;5.43;;;;;;;6.17;73.67;99655.00;6187687;23;20032;-81
2021/01/08 12:13:20;;;;;;;7.28;4.85;;;;;;;6.22;73.98;99654.81;6188265;23;20021;-83
2021/01/08 12:15:48;;;;;;;6.70;4.78;;;;;;;6.26;74.39;99656.41;6162893;23;20025;-81